Time;durP1;ratioP1;P1;durP2;ratioP2;P2;SDS_P1;SDS_P2;PMS_P1;PMS_P2;Temp;Humidity;BMP_temperature;BMP_pressure;BME280_temperature;BME280_humidity;BME280_pressure;Samples;Min_cycle;Max_cycle;Signal;HPM_P1;HPM_P2
2021/11/16 00:00:22;;;;;;;14.20;11.60;;;9.90;99.90;;;;;;5050891;28;20607;-85
2021/11/16 00:02:48;;;;;;;14.90;12.05;;;9.90;99.90;;;;;;5030387;28;20634;-84
2021/11/16 00:05:15;;;;;;;11.55;9.60;;;9.90;99.90;;;;;;5013490;28;20170;-84
2021/11/16 00:07:44;;;;;;;11.10;9.75;;;9.90;99.90;;;;;;5051082;28;20177;-85
2021/11/16 00:10:19;;;;;;;11.10;9.90;;;9.90;99.90;;;;;;5013423;28;20279;-83
2021/11/16 00:12:44;;;;;;;10.10;9.00;;;10.00;99.90;;;;;;5029472;28;20213;-85
2021/11/16 00:15:13;;;;;;;11.55;9.65;;;10.00;99.90;;;;;;5054278;28;20189;-84
2021/11/16 00:17:39;;;;;;;10.63;9.50;;;10.10;99.90;;;;;;5053624;28;20254;-84
2021/11/16 00:20:09;;;;;;;9.57;8.55;;;10.10;99.90;;;;;;5054126;28;20239;-84
2021/11/16 00:22:35;;;;;;;11.00;9.60;;;10.10;99.90;;;;;;5054015;28;20223;-83
2021/11/16 00:27:32;;;;;;;10.75;8.80;;;10.10;99.90;;;;;;5053294;28;20195;-84
2021/11/16 00:30:00;;;;;;;9.65;8.65;;;10.10;99.90;;;;;;5053489;28;20176;-83
2021/11/16 00:32:26;;;;;;;10.82;9.68;;;10.10;99.90;;;;;;5032980;28;20567;-83
2021/11/16 00:34:54;;;;;;;10.02;9.02;;;10.20;99.90;;;;;;5034249;28;20170;-83
2021/11/16 00:37:27;;;;;;;12.03;10.47;;;10.20;99.90;;;;;;5053063;28;20219;-83
2021/11/16 00:39:56;;;;;;;11.95;9.73;;;10.20;99.90;;;;;;5053315;28;20197;-84
2021/11/16 00:42:23;;;;;;;10.77;9.63;;;10.10;99.90;;;;;;5032706;28;20559;-84
2021/11/16 00:44:48;;;;;;;11.63;10.43;;;10.00;99.90;;;;;;5054687;28;20204;-84
2021/11/16 00:47:17;;;;;;;11.03;9.93;;;10.00;99.90;;;;;;5053696;28;20181;-83
2021/11/16 00:49:43;;;;;;;12.38;10.52;;;10.00;99.90;;;;;;5032505;28;20760;-83
2021/11/16 00:52:15;;;;;;;9.23;8.23;;;10.00;99.90;;;;;;5032242;28;20269;-82
2021/11/16 00:54:46;;;;;;;11.27;10.07;;;10.00;99.90;;;;;;5050624;28;20168;-84
2021/11/16 00:57:12;;;;;;;11.77;9.90;;;10.00;99.90;;;;;;5031587;28;20161;-84
2021/11/16 00:59:38;;;;;;;11.33;10.00;;;9.90;99.90;;;;;;5049785;28;20177;-83
2021/11/16 01:02:06;;;;;;;11.40;10.05;;;9.90;99.90;;;;;;5053165;28;20598;-84
2021/11/16 01:04:32;;;;;;;11.07;9.97;;;9.90;99.90;;;;;;5031975;28;20200;-84
2021/11/16 01:06:58;;;;;;;12.63;10.47;;;9.90;99.90;;;;;;5033816;28;20580;-85
2021/11/16 01:09:24;;;;;;;11.17;10.00;;;9.90;99.90;;;;;;5031980;28;20201;-84
2021/11/16 01:11:51;;;;;;;10.18;9.00;;;9.90;99.90;;;;;;5050896;28;20634;-84
2021/11/16 01:14:16;;;;;;;10.60;9.43;;;10.00;99.90;;;;;;5052628;28;20172;-84
2021/11/16 01:16:43;;;;;;;8.93;8.03;;;10.00;99.90;;;;;;5015047;28;20174;-85
2021/11/16 01:19:10;;;;;;;11.00;9.90;;;10.00;99.90;;;;;;5052895;28;20173;-84
2021/11/16 01:21:38;;;;;;;10.57;8.90;;;10.10;99.90;;;;;;5018749;28;20582;-84
2021/11/16 01:24:07;;;;;;;13.90;10.03;;;10.10;99.90;;;;;;5011737;28;20183;-84
2021/11/16 01:26:36;;;;;;;12.38;10.30;;;10.10;99.90;;;;;;5034708;28;20188;-84
2021/11/16 01:29:03;;;;;;;10.85;9.23;;;10.10;99.90;;;;;;5019018;28;20517;-84
2021/11/16 01:31:31;;;;;;;11.80;9.50;;;10.00;99.90;;;;;;5017957;28;20577;-83
2021/11/16 01:33:59;;;;;;;13.43;11.38;;;10.00;99.90;;;;;;5042958;28;20219;-84
2021/11/16 01:36:25;;;;;;;14.07;11.00;;;10.10;99.90;;;;;;5040463;28;20180;-84
2021/11/16 01:38:55;;;;;;;10.20;9.13;;;10.00;99.90;;;;;;5028178;28;20167;-84
2021/11/16 01:41:24;;;;;;;13.23;10.65;;;10.00;99.90;;;;;;5041578;28;20383;-84
2021/11/16 01:43:52;;;;;;;13.80;11.95;;;10.00;99.90;;;;;;5044747;28;20172;-84
2021/11/16 01:46:20;;;;;;;17.93;12.27;;;10.00;99.90;;;;;;5043435;28;20645;-84
2021/11/16 01:48:51;;;;;;;11.82;10.45;;;10.00;99.90;;;;;;5009859;28;20991;-84
2021/11/16 01:51:21;;;;;;;11.88;10.10;;;10.00;99.90;;;;;;5049262;28;20215;-84
2021/11/16 01:53:48;;;;;;;14.63;10.93;;;10.00;99.90;;;;;;5017871;28;20192;-84
2021/11/16 01:56:14;;;;;;;12.50;10.40;;;9.90;99.90;;;;;;5002583;28;20281;-84
2021/11/16 01:58:40;;;;;;;14.03;10.53;;;9.80;99.90;;;;;;5049104;28;20255;-84
2021/11/16 02:01:06;;;;;;;11.68;9.63;;;9.80;99.90;;;;;;5037543;28;20526;-85
2021/11/16 02:03:32;;;;;;;10.53;9.40;;;9.70;99.90;;;;;;5051848;28;20195;-84
2021/11/16 02:06:25;;;;;;;11.85;9.48;;;9.70;99.90;;;;;;5021417;28;20204;-84
2021/11/16 02:08:53;;;;;;;13.55;11.40;;;9.70;99.90;;;;;;5045414;28;20233;-84
2021/11/16 02:11:19;;;;;;;11.57;9.85;;;9.60;99.90;;;;;;5030850;28;20607;-84
2021/11/16 02:13:45;;;;;;;10.60;8.82;;;9.60;99.90;;;;;;5048827;28;20260;-84
2021/11/16 02:16:11;;;;;;;11.77;9.30;;;9.60;99.90;;;;;;5030475;28;20168;-84
2021/11/16 02:18:38;;;;;;;9.70;8.70;;;9.60;99.90;;;;;;5030751;28;20182;-83
2021/11/16 02:21:06;;;;;;;10.98;8.80;;;9.60;99.90;;;;;;5034138;28;20200;-84
2021/11/16 02:23:33;;;;;;;9.15;7.90;;;9.50;99.90;;;;;;5051136;28;20222;-84
2021/11/16 02:25:59;;;;;;;9.77;8.07;;;9.50;99.90;;;;;;5051429;28;20691;-84
2021/11/16 02:28:26;;;;;;;8.40;6.70;;;9.50;99.90;;;;;;5030694;28;20189;-84
2021/11/16 02:30:53;;;;;;;8.77;6.80;;;9.50;99.90;;;;;;5049792;28;20260;-84
2021/11/16 02:33:22;;;;;;;9.15;8.00;;;9.60;99.90;;;;;;5051597;28;20642;-84
2021/11/16 02:35:48;;;;;;;10.52;8.55;;;9.60;99.90;;;;;;5053847;28;20208;-84
2021/11/16 02:38:17;;;;;;;9.88;8.77;;;9.70;99.90;;;;;;5031856;28;20162;-84
2021/11/16 02:40:44;;;;;;;12.55;9.77;;;9.70;99.90;;;;;;5013952;28;20621;-84
2021/11/16 02:43:10;;;;;;;11.73;8.88;;;9.70;99.90;;;;;;5030322;28;20173;-84
2021/11/16 02:45:39;;;;;;;8.88;7.97;;;9.70;99.90;;;;;;5047598;28;20545;-84
2021/11/16 02:48:14;;;;;;;9.18;7.90;;;9.70;99.90;;;;;;5051031;28;20165;-84
2021/11/16 02:50:45;;;;;;;9.50;8.32;;;9.80;99.90;;;;;;5051028;28;20246;-85
2021/11/16 02:53:11;;;;;;;9.32;6.75;;;9.80;99.90;;;;;;5051057;28;20196;-84
2021/11/16 02:55:41;;;;;;;9.40;7.90;;;9.80;99.90;;;;;;5030173;28;20256;-84
2021/11/16 02:58:07;;;;;;;12.00;8.30;;;9.70;99.90;;;;;;5043280;28;20184;-84
2021/11/16 03:00:34;;;;;;;9.20;7.25;;;9.80;99.90;;;;;;5020821;28;20198;-84
2021/11/16 03:03:00;;;;;;;11.32;8.48;;;9.70;99.90;;;;;;5051292;28;20179;-78
2021/11/16 03:05:33;;;;;;;10.60;9.05;;;9.70;99.90;;;;;;5051388;28;20243;-78
2021/11/16 03:08:02;;;;;;;10.05;7.15;;;9.70;99.90;;;;;;5050549;28;20641;-78
2021/11/16 03:10:30;;;;;;;8.65;6.78;;;9.70;99.90;;;;;;5051276;28;20573;-78
2021/11/16 03:12:59;;;;;;;9.55;7.03;;;9.70;99.90;;;;;;5053933;28;20511;-78
2021/11/16 03:15:25;;;;;;;9.47;8.00;;;9.70;99.90;;;;;;5052641;28;20179;-78
2021/11/16 03:17:51;;;;;;;12.07;8.83;;;9.70;99.90;;;;;;5050423;28;20165;-78
2021/11/16 03:20:21;;;;;;;12.00;8.45;;;9.70;99.90;;;;;;5029912;28;20194;-77
2021/11/16 03:22:56;;;;;;;10.30;7.93;;;9.70;99.90;;;;;;5048217;28;20252;-77
2021/11/16 03:25:26;;;;;;;9.50;6.70;;;9.70;99.90;;;;;;5030214;28;20189;-77
2021/11/16 03:27:59;;;;;;;10.55;8.80;;;9.70;99.90;;;;;;5049031;28;20184;-77
2021/11/16 03:30:25;;;;;;;12.07;8.63;;;9.70;99.90;;;;;;5051043;28;20204;-77
2021/11/16 03:32:51;;;;;;;10.43;8.20;;;9.70;99.90;;;;;;5013882;28;20173;-77
2021/11/16 03:35:17;;;;;;;9.23;7.40;;;9.70;99.90;;;;;;5050843;28;20173;-77
2021/11/16 03:37:48;;;;;;;10.77;7.87;;;9.70;99.90;;;;;;5050603;28;20176;-77
2021/11/16 03:40:20;;;;;;;10.52;9.43;;;9.70;99.90;;;;;;5029555;28;20196;-77
2021/11/16 03:42:47;;;;;;;13.23;9.32;;;9.70;99.90;;;;;;5030410;28;20173;-78
2021/11/16 03:45:21;;;;;;;10.38;7.90;;;9.80;99.90;;;;;;5050661;28;20255;-78
2021/11/16 03:47:47;;;;;;;11.00;8.20;;;9.80;99.90;;;;;;5050445;28;20180;-78
2021/11/16 03:50:19;;;;;;;9.57;7.85;;;9.80;99.90;;;;;;5032667;28;20205;-78
2021/11/16 03:52:49;;;;;;;12.80;8.98;;;9.80;99.90;;;;;;5018529;28;20177;-77
2021/11/16 03:55:15;;;;;;;11.23;8.77;;;9.80;99.90;;;;;;5044854;28;20585;-78
2021/11/16 03:57:41;;;;;;;12.38;10.52;;;9.90;99.90;;;;;;5052282;28;20509;-78
2021/11/16 04:00:13;;;;;;;12.95;9.95;;;9.80;99.90;;;;;;5020505;28;20621;-78
2021/11/16 04:02:39;;;;;;;15.10;9.95;;;9.80;99.90;;;;;;5013322;28;20189;-78
2021/11/16 04:05:05;;;;;;;12.53;9.70;;;9.70;99.90;;;;;;5005767;28;20175;-78
2021/11/16 04:07:32;;;;;;;12.25;9.65;;;9.70;99.90;;;;;;4986950;28;20573;-77
2021/11/16 04:09:58;;;;;;;14.35;10.60;;;9.70;99.90;;;;;;5033261;28;20166;-77
2021/11/16 04:12:24;;;;;;;13.48;9.40;;;9.70;99.90;;;;;;5034460;28;20176;-77
2021/11/16 04:14:55;;;;;;;16.70;11.38;;;9.70;99.90;;;;;;5034510;28;20166;-78
2021/11/16 04:17:21;;;;;;;13.97;9.97;;;9.70;99.90;;;;;;4999264;28;20257;-77
2021/11/16 04:19:46;;;;;;;15.13;11.37;;;9.70;99.90;;;;;;5000242;28;20177;-77
2021/11/16 04:22:12;;;;;;;17.07;10.53;;;9.70;99.90;;;;;;5034133;28;20560;-77
2021/11/16 04:24:38;;;;;;;13.97;9.20;;;9.70;99.90;;;;;;5016322;28;20170;-77
2021/11/16 04:27:07;;;;;;;14.40;11.13;;;9.80;99.90;;;;;;5038922;28;20174;-77
2021/11/16 04:29:33;;;;;;;15.27;9.30;;;9.80;99.90;;;;;;5017778;28;20622;-78
2021/11/16 04:31:58;;;;;;;14.45;10.32;;;9.80;99.90;;;;;;4999664;28;20647;-77
2021/11/16 04:34:24;;;;;;;13.50;10.10;;;9.80;99.90;;;;;;5033579;28;20172;-77
2021/11/16 04:36:50;;;;;;;12.00;9.80;;;9.70;99.90;;;;;;5033613;28;20170;-78
2021/11/16 04:39:16;;;;;;;11.50;7.60;;;9.70;99.90;;;;;;5033809;28;20173;-78
2021/11/16 04:41:44;;;;;;;13.50;9.70;;;9.70;99.90;;;;;;4999955;28;20194;-78
2021/11/16 04:44:10;;;;;;;10.63;8.25;;;9.70;99.90;;;;;;5015641;28;20189;-77
2021/11/16 04:46:39;;;;;;;11.55;8.70;;;9.70;99.90;;;;;;5016005;28;20600;-79
2021/11/16 05:04:38;;;;;;;9.00;7.40;;;9.70;99.90;;;;;;5036343;28;20181;-77
2021/11/16 05:07:11;;;;;;;11.73;9.13;;;9.70;99.90;;;;;;5015317;28;20170;-77
2021/11/16 05:09:37;;;;;;;8.98;6.90;;;9.70;99.90;;;;;;5033579;28;20173;-77
2021/11/16 05:12:05;;;;;;;8.60;7.07;;;9.80;99.90;;;;;;5032934;28;20213;-77
2021/11/16 05:14:31;;;;;;;9.18;6.90;;;9.80;99.90;;;;;;4998796;28;20544;-77
2021/11/16 05:16:57;;;;;;;8.37;6.10;;;9.80;99.90;;;;;;5014655;28;20174;-77
2021/11/16 05:19:26;;;;;;;9.38;6.60;;;9.80;99.90;;;;;;4999505;28;20611;-77
2021/11/16 05:21:54;;;;;;;8.82;6.75;;;9.90;99.90;;;;;;5032720;28;20232;-77
2021/11/16 05:24:24;;;;;;;7.53;6.03;;;9.90;99.90;;;;;;5015293;28;20170;-77
2021/11/16 05:26:51;;;;;;;8.13;6.55;;;9.90;99.90;;;;;;5032296;28;21100;-77
2021/11/16 05:29:20;;;;;;;8.63;6.97;;;10.00;99.90;;;;;;5015151;28;20182;-77
2021/11/16 05:31:46;;;;;;;9.77;7.38;;;10.00;99.90;;;;;;5015115;28;20194;-77
2021/11/16 05:34:12;;;;;;;9.50;6.43;;;10.00;99.90;;;;;;5014939;28;20536;-77
2021/11/16 05:36:38;;;;;;;8.63;6.97;;;9.90;99.90;;;;;;5032497;28;20573;-77
2021/11/16 05:39:05;;;;;;;9.00;7.60;;;9.90;99.90;;;;;;5032719;28;20161;-77
2021/11/16 05:41:31;;;;;;;10.27;8.40;;;9.90;99.90;;;;;;5020085;28;20193;-77
2021/11/16 05:43:57;;;;;;;11.17;8.60;;;10.00;99.90;;;;;;5032032;28;20185;-77
2021/11/16 05:46:23;;;;;;;12.10;8.73;;;10.00;99.90;;;;;;5032109;28;20645;-77
2021/11/16 05:48:51;;;;;;;11.82;9.02;;;10.00;99.90;;;;;;5032330;28;21171;-77
2021/11/16 05:51:19;;;;;;;14.93;9.18;;;10.00;99.90;;;;;;5014864;28;20205;-78
2021/11/16 05:53:51;;;;;;;10.77;9.13;;;10.10;99.90;;;;;;5014632;28;20571;-77
2021/11/16 05:56:22;;;;;;;12.15;9.10;;;10.10;99.90;;;;;;5031780;28;20216;-77
2021/11/16 05:58:52;;;;;;;10.40;8.90;;;10.10;99.90;;;;;;5014590;28;20216;-77
2021/11/16 06:01:23;;;;;;;12.50;9.10;;;10.20;99.90;;;;;;5014448;28;20566;-77
2021/11/16 06:03:53;;;;;;;10.50;8.80;;;10.10;99.90;;;;;;5017909;28;20174;-77
2021/11/16 06:06:23;;;;;;;10.20;7.00;;;10.20;99.90;;;;;;4989466;28;20200;-78
2021/11/16 06:08:50;;;;;;;9.05;8.10;;;10.20;99.90;;;;;;5007376;28;20252;-77
2021/11/16 06:11:17;;;;;;;11.15;8.80;;;10.10;99.90;;;;;;5042596;28;20531;-77
2021/11/16 06:13:50;;;;;;;9.93;8.30;;;10.10;99.90;;;;;;5014065;28;20166;-77
2021/11/16 06:16:16;;;;;;;9.88;8.10;;;10.10;99.90;;;;;;5013809;28;20858;-77
2021/11/16 06:18:52;;;;;;;9.07;7.50;;;10.10;99.90;;;;;;5036601;28;20177;-78
2021/11/16 06:21:19;;;;;;;10.35;8.10;;;10.10;99.90;;;;;;5014204;28;20600;-78
2021/11/16 06:23:48;;;;;;;11.02;9.10;;;10.10;99.90;;;;;;5031599;28;20557;-77
2021/11/16 06:26:14;;;;;;;10.80;8.88;;;10.10;99.90;;;;;;5031264;28;20181;-77
2021/11/16 06:28:40;;;;;;;12.48;8.20;;;10.00;99.90;;;;;;5007226;28;20174;-77
2021/11/16 06:31:07;;;;;;;9.18;7.70;;;10.00;99.90;;;;;;5034675;28;20295;-77
2021/11/16 06:33:32;;;;;;;12.23;8.55;;;10.10;99.90;;;;;;5050891;28;20164;-77
2021/11/16 06:35:58;;;;;;;11.57;8.60;;;10.10;99.90;;;;;;5014081;28;20173;-78
2021/11/16 06:38:24;;;;;;;12.87;9.00;;;10.10;99.90;;;;;;5041847;28;20173;-77
2021/11/16 06:40:50;;;;;;;10.60;8.23;;;10.00;99.90;;;;;;5017357;28;20197;-77
2021/11/16 06:43:31;;;;;;;15.10;9.47;;;10.00;99.90;;;;;;5029843;28;20177;-77
2021/11/16 06:46:00;;;;;;;11.25;9.02;;;10.00;99.90;;;;;;5036928;28;20191;-77
2021/11/16 06:48:27;;;;;;;12.02;8.52;;;10.00;99.90;;;;;;5025816;28;20584;-77
2021/11/16 06:50:55;;;;;;;11.57;9.00;;;10.00;99.90;;;;;;5032419;28;20211;-78
2021/11/16 06:53:29;;;;;;;12.35;9.52;;;10.00;99.90;;;;;;5042062;28;20537;-77
2021/11/16 06:55:56;;;;;;;13.65;10.05;;;10.00;99.90;;;;;;5045787;28;20172;-78
2021/11/16 06:58:23;;;;;;;12.25;9.57;;;10.00;99.90;;;;;;5016159;28;20472;-78
2021/11/16 07:00:50;;;;;;;13.80;10.65;;;10.00;99.90;;;;;;5034686;28;20200;-77
2021/11/16 07:03:21;;;;;;;11.55;10.25;;;10.00;99.90;;;;;;5041316;28;20253;-77
2021/11/16 07:05:48;;;;;;;11.18;9.95;;;9.90;99.90;;;;;;5022581;28;20188;-76
2021/11/16 07:08:31;;;;;;;14.90;11.25;;;9.90;99.90;;;;;;5048692;28;20256;-77
2021/11/16 07:11:12;;;;;;;14.13;10.68;;;10.00;99.90;;;;;;4997100;28;20659;-77
2021/11/16 07:13:53;;;;;;;16.38;10.88;;;9.90;99.90;;;;;;5029120;28;20260;-77
2021/11/16 07:16:19;;;;;;;13.93;9.88;;;10.00;99.90;;;;;;5036208;28;20170;-77
2021/11/16 07:18:52;;;;;;;12.67;9.90;;;10.00;99.90;;;;;;5027959;28;20631;-77
2021/11/16 07:21:23;;;;;;;13.18;10.40;;;10.00;99.90;;;;;;5030682;28;20691;-77
2021/11/16 07:24:14;;;;;;;17.05;10.95;;;10.00;99.90;;;;;;5012828;28;20180;-78
2021/11/16 07:26:41;;;;;;;13.18;10.45;;;9.90;99.90;;;;;;5045741;28;20181;-78
2021/11/16 07:29:11;;;;;;;14.27;10.45;;;9.90;99.90;;;;;;5024941;28;20181;-78
2021/11/16 07:31:41;;;;;;;14.18;10.73;;;9.90;99.90;;;;;;5027951;28;20287;-78
2021/11/16 07:34:14;;;;;;;18.48;11.15;;;9.90;99.90;;;;;;5051605;28;20174;-77
2021/11/16 07:36:40;;;;;;;13.48;11.20;;;9.90;99.90;;;;;;5035929;28;20165;-78
2021/11/16 07:39:07;;;;;;;14.40;10.30;;;9.90;99.90;;;;;;5045324;28;20192;-77
2021/11/16 07:41:33;;;;;;;14.02;10.40;;;9.90;99.90;;;;;;5028396;28;20205;-78
2021/11/16 07:44:09;;;;;;;13.30;10.70;;;9.90;99.90;;;;;;5036839;28;20189;-78
2021/11/16 07:46:36;;;;;;;16.02;11.55;;;9.90;99.90;;;;;;5023131;28;20215;-78
2021/11/16 07:49:02;;;;;;;15.60;12.57;;;9.90;99.90;;;;;;5023253;28;20637;-77
2021/11/16 07:51:29;;;;;;;14.02;11.18;;;9.90;99.90;;;;;;5022231;28;20229;-77
2021/11/16 07:53:55;;;;;;;14.52;11.32;;;9.90;99.90;;;;;;5024079;28;20180;-77
2021/11/16 07:56:24;;;;;;;14.95;11.35;;;9.90;99.90;;;;;;5035733;28;20234;-77
2021/11/16 07:58:55;;;;;;;14.00;10.52;;;9.90;99.90;;;;;;5018928;28;20173;-77
2021/11/16 08:01:42;;;;;;;15.25;11.40;;;9.90;99.90;;;;;;5036471;28;20215;-78
2021/11/16 08:04:23;;;;;;;14.20;12.13;;;9.90;99.90;;;;;;5020409;28;20213;-77
2021/11/16 08:07:05;;;;;;;15.85;11.13;;;9.90;99.90;;;;;;5015116;28;20721;-77
2021/11/16 08:12:29;;;;;;;16.98;11.05;;;9.90;99.90;;;;;;5018124;28;20220;-77
2021/11/16 08:15:05;;;;;;;12.70;10.85;;;9.90;99.90;;;;;;5021925;28;20172;-77
2021/11/16 08:17:32;;;;;;;14.05;11.55;;;10.00;99.90;;;;;;5042433;28;20170;-77
2021/11/16 08:20:07;;;;;;;14.50;12.00;;;9.90;99.90;;;;;;5035191;28;20204;-76
2021/11/16 08:22:33;;;;;;;15.18;11.27;;;10.00;99.90;;;;;;5031553;28;20625;-76
2021/11/16 08:24:59;;;;;;;14.25;11.00;;;10.00;99.90;;;;;;5053254;28;20169;-76
2021/11/16 08:27:32;;;;;;;15.87;12.13;;;10.00;99.90;;;;;;5039286;28;20169;-77
2021/11/16 08:30:02;;;;;;;14.32;11.18;;;10.00;99.90;;;;;;5029569;28;20304;-76
2021/11/16 08:32:36;;;;;;;14.88;11.25;;;10.00;99.90;;;;;;5025992;28;20176;-77
2021/11/16 08:35:14;;;;;;;15.63;12.18;;;10.00;99.90;;;;;;5030261;28;20181;-77
2021/11/16 08:37:41;;;;;;;15.35;11.70;;;10.00;99.90;;;;;;5031564;28;20177;-77
2021/11/16 08:40:14;;;;;;;15.73;11.48;;;10.10;99.90;;;;;;5033262;28;20196;-78
2021/11/16 08:42:43;;;;;;;16.48;12.40;;;10.10;99.90;;;;;;5034860;28;20177;-77
2021/11/16 08:45:15;;;;;;;14.55;11.05;;;10.10;99.90;;;;;;5008285;28;20653;-78
2021/11/16 08:47:48;;;;;;;12.85;11.00;;;10.10;99.90;;;;;;5033165;28;20618;-78
2021/11/16 08:50:33;;;;;;;16.60;12.68;;;10.10;99.90;;;;;;5025007;28;20194;-77
2021/11/16 08:53:10;;;;;;;14.77;10.88;;;10.10;99.90;;;;;;5033032;28;20541;-77
2021/11/16 08:55:38;;;;;;;15.50;12.75;;;10.10;99.90;;;;;;5027826;28;20527;-77
2021/11/16 08:58:07;;;;;;;12.55;10.95;;;10.20;99.90;;;;;;5032909;28;20178;-77
2021/11/16 09:00:43;;;;;;;14.20;10.77;;;10.20;99.90;;;;;;5033175;28;20552;-77
2021/11/16 09:03:13;;;;;;;16.33;12.13;;;10.20;99.90;;;;;;5033028;28;20169;-77
2021/11/16 09:05:43;;;;;;;16.13;12.18;;;10.20;99.90;;;;;;5032883;28;20166;-77
2021/11/16 09:08:25;;;;;;;15.50;10.98;;;10.30;99.90;;;;;;5019113;28;20189;-77
2021/11/16 09:10:55;;;;;;;16.55;13.43;;;10.30;99.90;;;;;;5034004;28;20231;-77
2021/11/16 09:13:23;;;;;;;16.27;12.63;;;10.30;99.90;;;;;;5045100;28;20204;-80
2021/11/16 09:15:53;;;;;;;16.80;12.40;;;10.20;99.90;;;;;;5036187;28;20283;-80
2021/11/16 09:18:28;;;;;;;16.10;12.75;;;10.20;99.90;;;;;;5044157;28;20504;-81
2021/11/16 09:20:58;;;;;;;13.15;10.32;;;10.30;99.90;;;;;;5033704;28;20243;-80
2021/11/16 09:23:30;;;;;;;20.02;12.73;;;10.30;99.90;;;;;;5057074;28;20161;-80
2021/11/16 09:26:32;;;;;;;14.95;12.30;;;10.30;99.90;;;;;;5055039;28;20382;-80
2021/11/16 09:29:26;;;;;;;13.93;11.20;;;10.30;99.90;;;;;;5052376;28;20184;-80
2021/11/16 09:32:01;;;;;;;18.58;12.43;;;10.30;99.90;;;;;;5029662;28;20593;-81
2021/11/16 09:34:30;;;;;;;14.77;11.88;;;10.40;99.90;;;;;;5030836;28;20204;-80
2021/11/16 09:36:58;;;;;;;15.35;11.88;;;10.40;99.90;;;;;;5050794;28;20166;-79
2021/11/16 09:39:30;;;;;;;16.17;12.30;;;10.40;99.90;;;;;;5014589;28;20169;-80
2021/11/16 09:42:01;;;;;;;17.13;13.50;;;10.40;99.90;;;;;;5051337;28;20192;-79
2021/11/16 09:44:43;;;;;;;16.75;12.93;;;10.40;99.90;;;;;;5031598;28;20612;-80
2021/11/16 09:47:16;;;;;;;17.48;12.80;;;10.40;99.90;;;;;;5043832;28;20318;-80
2021/11/16 09:49:50;;;;;;;18.00;13.73;;;10.40;99.90;;;;;;4991514;28;20175;-80
2021/11/16 09:52:42;;;;;;;15.13;11.55;;;10.40;99.90;;;;;;5016483;28;20194;-80
2021/11/16 09:55:12;;;;;;;15.07;11.27;;;10.40;99.90;;;;;;5031090;28;20264;-80
2021/11/16 09:57:45;;;;;;;18.00;13.25;;;10.30;99.90;;;;;;5040797;28;20224;-80
2021/11/16 10:00:18;;;;;;;15.13;10.95;;;10.30;99.90;;;;;;5035934;28;20190;-80
2021/11/16 10:03:03;;;;;;;16.10;11.77;;;10.30;99.90;;;;;;5032982;28;20256;-80
2021/11/16 10:05:32;;;;;;;14.82;11.70;;;10.30;99.90;;;;;;5014431;28;20174;-80
2021/11/16 10:08:05;;;;;;;17.33;11.77;;;10.30;99.90;;;;;;5070073;28;20701;-80
2021/11/16 10:10:35;;;;;;;17.15;12.35;;;10.30;99.90;;;;;;5063042;28;20238;-80
2021/11/16 10:13:11;;;;;;;16.85;12.77;;;10.30;99.90;;;;;;5049542;28;20176;-80
2021/11/16 10:15:41;;;;;;;15.93;12.80;;;10.20;99.90;;;;;;5049944;28;20165;-80
2021/11/16 10:18:09;;;;;;;18.67;12.55;;;10.20;99.90;;;;;;5047292;28;20253;-80
2021/11/16 10:20:38;;;;;;;16.42;12.00;;;10.20;99.90;;;;;;5048427;28;20189;-80
2021/11/16 10:23:07;;;;;;;17.95;12.60;;;10.20;99.90;;;;;;5046775;28;20165;-80
2021/11/16 10:25:36;;;;;;;18.63;11.95;;;10.20;99.90;;;;;;5048190;28;20179;-80
2021/11/16 10:28:16;;;;;;;16.90;12.98;;;10.20;99.90;;;;;;5046990;28;20177;-80
2021/11/16 10:30:43;;;;;;;15.55;12.00;;;10.10;99.90;;;;;;5047637;28;20189;-81
2021/11/16 10:33:17;;;;;;;16.90;11.93;;;10.00;99.90;;;;;;5047784;28;20177;-80
2021/11/16 10:35:51;;;;;;;14.18;10.90;;;10.00;99.90;;;;;;5046627;28;20164;-81
2021/11/16 10:38:20;;;;;;;13.85;11.48;;;9.90;99.90;;;;;;5050687;28;20170;-81
2021/11/16 10:40:46;;;;;;;14.85;10.23;;;9.90;99.90;;;;;;5047824;28;20184;-81
2021/11/16 10:43:12;;;;;;;16.83;11.52;;;9.90;99.90;;;;;;5048704;28;20197;-79
2021/11/16 10:45:43;;;;;;;12.17;10.60;;;9.80;99.90;;;;;;5053522;28;20180;-80
2021/11/16 10:48:12;;;;;;;14.20;10.68;;;9.80;99.90;;;;;;5050880;28;20611;-81
2021/11/16 10:50:44;;;;;;;14.73;11.07;;;9.80;99.90;;;;;;5013930;28;20201;-80
2021/11/16 10:53:14;;;;;;;13.43;10.57;;;9.70;99.90;;;;;;5048223;28;20170;-80
2021/11/16 10:55:44;;;;;;;12.50;9.98;;;9.70;99.90;;;;;;5047860;28;20169;-81
2021/11/16 10:58:12;;;;;;;13.32;8.82;;;9.70;99.90;;;;;;5047146;28;20179;-80
2021/11/16 11:00:48;;;;;;;13.10;8.43;;;9.70;99.90;;;;;;5051192;28;20185;-80
2021/11/16 11:03:28;;;;;;;14.63;12.18;;;9.70;99.90;;;;;;5064380;28;20196;-79
2021/11/16 11:06:07;;;;;;;16.65;11.98;;;9.70;99.90;;;;;;5048160;28;20188;-80
2021/11/16 11:08:36;;;;;;;12.43;9.70;;;9.70;99.90;;;;;;5046275;28;20173;-81
2021/11/16 11:11:04;;;;;;;12.18;9.35;;;9.80;99.90;;;;;;5046569;28;20238;-81
2021/11/16 11:13:32;;;;;;;9.50;7.60;;;9.80;99.90;;;;;;5047376;28;20158;-81
2021/11/16 11:15:59;;;;;;;9.88;7.88;;;9.80;99.90;;;;;;5050896;28;20181;-81
2021/11/16 11:18:28;;;;;;;10.50;8.93;;;9.80;99.90;;;;;;5040190;28;20221;-81
2021/11/16 11:20:57;;;;;;;10.63;8.60;;;9.80;99.90;;;;;;5034525;28;20201;-81
2021/11/16 11:23:46;;;;;;;11.50;8.00;;;9.90;99.90;;;;;;5033656;28;20810;-81
2021/11/16 11:26:44;;;;;;;11.45;7.50;;;9.90;99.90;;;;;;5032297;28;20217;-81
2021/11/16 11:29:24;;;;;;;11.88;8.98;;;10.00;99.90;;;;;;5033437;28;20197;-81
2021/11/16 11:32:18;;;;;;;10.93;8.82;;;10.00;99.90;;;;;;5033498;28;20231;-81
2021/11/16 11:34:47;;;;;;;11.45;8.90;;;10.00;99.90;;;;;;5029098;28;20190;-81
2021/11/16 11:37:21;;;;;;;10.23;8.48;;;10.10;99.90;;;;;;5033083;28;20311;-81
2021/11/16 11:40:02;;;;;;;11.40;8.38;;;10.10;99.90;;;;;;5033167;28;20531;-81
2021/11/16 11:42:33;;;;;;;12.00;8.60;;;10.10;99.90;;;;;;5015855;28;20177;-81
2021/11/16 11:45:23;;;;;;;10.82;9.07;;;10.20;99.90;;;;;;5032467;28;20187;-80
2021/11/16 11:47:52;;;;;;;11.43;8.90;;;10.20;99.90;;;;;;5034288;28;20205;-81
2021/11/16 11:50:46;;;;;;;10.70;8.65;;;10.20;99.90;;;;;;5033056;28;20288;-81
2021/11/16 11:53:20;;;;;;;10.38;7.82;;;10.20;99.90;;;;;;5038254;28;20184;-80
2021/11/16 11:55:49;;;;;;;10.10;8.02;;;10.20;99.90;;;;;;5033421;28;20177;-79
2021/11/16 11:58:17;;;;;;;10.27;8.50;;;10.30;99.90;;;;;;5036289;28;20173;-80
2021/11/16 12:00:44;;;;;;;10.80;8.82;;;10.20;99.90;;;;;;5033555;28;20217;-80
2021/11/16 12:03:11;;;;;;;9.43;7.75;;;10.30;99.90;;;;;;5033859;28;20255;-80
2021/11/16 12:05:39;;;;;;;8.05;6.57;;;10.30;99.90;;;;;;5034203;28;20201;-79
2021/11/16 12:08:09;;;;;;;13.40;9.40;;;10.20;99.90;;;;;;5034972;28;20181;-79
2021/11/16 12:10:41;;;;;;;9.90;8.10;;;10.30;99.90;;;;;;5037685;28;20658;-81
2021/11/16 12:13:09;;;;;;;10.45;7.80;;;10.20;99.90;;;;;;5015274;28;20173;-81
2021/11/16 12:16:05;;;;;;;6.25;5.00;;;10.20;99.90;;;;;;5034057;28;20231;-80
2021/11/16 12:18:38;;;;;;;8.02;5.75;;;10.20;99.90;;;;;;5013354;28;20162;-82
2021/11/16 12:21:05;;;;;;;6.75;5.43;;;10.30;99.90;;;;;;5015257;28;20190;-79
2021/11/16 12:23:45;;;;;;;6.55;4.70;;;10.20;99.90;;;;;;5018950;28;20174;-79
2021/11/16 12:26:13;;;;;;;5.15;4.60;;;10.20;99.90;;;;;;5019842;28;20576;-79
2021/11/16 12:28:39;;;;;;;7.00;5.15;;;10.20;99.90;;;;;;5018676;28;20531;-80
2021/11/16 12:31:08;;;;;;;5.47;4.90;;;10.30;99.90;;;;;;5012912;28;20194;-79
2021/11/16 12:33:43;;;;;;;5.13;4.40;;;10.20;99.90;;;;;;5011599;28;20174;-78
2021/11/16 12:36:14;;;;;;;5.55;4.40;;;10.20;99.90;;;;;;5011079;28;20174;-78
2021/11/16 12:38:43;;;;;;;6.70;4.32;;;10.20;99.90;;;;;;5012419;28;20170;-78
2021/11/16 12:41:28;;;;;;;8.82;5.10;;;10.30;99.90;;;;;;5015724;28;20596;-79
2021/11/16 12:43:56;;;;;;;5.63;4.53;;;10.30;99.90;;;;;;5018484;28;20174;-79
2021/11/16 12:46:23;;;;;;;7.03;5.00;;;10.30;99.90;;;;;;5032569;28;20198;-80
2021/11/16 12:48:52;;;;;;;8.10;5.03;;;10.30;99.90;;;;;;5032876;28;20206;-79
2021/11/16 12:51:21;;;;;;;5.53;4.95;;;10.30;99.90;;;;;;5013487;28;20670;-79
2021/11/16 12:53:52;;;;;;;6.03;4.57;;;10.30;99.90;;;;;;5013847;28;20166;-78
2021/11/16 12:56:20;;;;;;;7.70;5.43;;;10.30;99.90;;;;;;5018109;28;20174;-79
2021/11/16 12:58:52;;;;;;;7.88;4.78;;;10.40;99.90;;;;;;5017074;28;20596;-79
2021/11/16 13:01:42;;;;;;;7.03;5.07;;;10.40;99.90;;;;;;5017833;28;20812;-79
2021/11/16 13:04:11;;;;;;;6.30;4.40;;;10.40;99.90;;;;;;5017880;28;20257;-79
2021/11/16 13:06:39;;;;;;;6.65;4.40;;;10.40;99.90;;;;;;5024873;28;20217;-78
2021/11/16 13:09:07;;;;;;;6.72;4.55;;;10.40;99.90;;;;;;5033067;28;20176;-81
2021/11/16 13:11:40;;;;;;;9.90;6.43;;;10.40;99.90;;;;;;5036381;28;20185;-79
2021/11/16 13:14:11;;;;;;;8.30;6.45;;;10.40;99.90;;;;;;5047836;28;20197;-79
2021/11/16 13:16:38;;;;;;;10.73;6.55;;;10.40;99.90;;;;;;5050920;28;20231;-74